Date,TemperatureHighF,TemperatureAvgF,TemperatureLowF,DewpointHighF,DewpointAvgF,DewpointLowF,HumidityHigh,HumidityAvg,HumidityLow,PressureMaxIn,PressureMinIn,WindSpeedMaxMPH,WindSpeedAvgMPH,GustSpeedMaxMPH,PrecipitationSumIn
2013-12-1,32.0,8.6,31.0,25.0,-66.2,-99.9,74,20,68,30.24,29.98,13,-723,0,0.00
2013-12-2,40.1,23.7,34.7,35.0,-14.9,-99.9,94,55,81,29.98,29.85,5,-363,0,0.07
2013-12-3,41.9,30.7,27.5,33.0,14.3,-99.9,96,71,61,30.02,29.89,5,-114,0,0.00
2013-12-4,46.7,34.4,29.0,40.0,19.5,-99.9,93,76,77,30.05,29.95,10,-113,0,0.00
2013-12-5,49.5,11.1,43.4,46.0,-66.3,-99.9,88,20,85,29.98,29.75,22,-763,0,0.01
2013-12-6,36.0,21.9,31.4,31.0,-18.4,-99.9,88,49,72,30.24,29.98,10,-359,0,0.09
2013-12-7,32.1,26.0,26.1,27.0,6.2,-99.9,86,61,55,30.55,30.22,15,-108,0,0.00
2013-12-8,29.2,22.6,21.2,24.0,-0.3,-99.9,91,57,55,30.59,30.26,12,-142,0,0.00
2013-12-9,29.8,5.8,26.1,26.0,-73.7,-99.9,91,18,85,30.25,29.85,18,-786,0,0.00
2013-12-10,26.5,14.7,21.2,21.0,-30.4,-99.9,89,42,58,30.06,29.92,16,-396,0,0.00
2013-12-11,26.1,20.2,17.3,20.0,2.0,-99.9,84,63,60,30.26,30.07,16,-101,0,0.00
2013-12-12,20.7,14.9,14.3,13.0,-9.5,-99.9,87,59,60,30.33,30.05,15,-176,0,0.00
2013-12-13,25.0,17.0,11.9,20.0,0.9,-99.9,89,71,64,30.42,30.02,18,-109,0,0.00
2013-12-14,23.7,11.8,8.1,22.0,-4.1,-99.9,93,74,64,30.49,29.79,19,-120,0,0.00
2013-12-15,24.9,18.4,16.1,23.0,-0.2,-99.9,93,75,79,29.83,29.62,22,-162,0,0.00
2013-12-16,21.8,13.6,-0.5,17.0,-1.9,-99.9,87,73,74,30.21,29.84,22,-112,0,0.00
2013-12-17,27.8,15.6,-4.1,25.0,0.4,-99.9,92,77,84,30.18,29.92,15,-123,0,0.00
2013-12-18,32.5,24.2,23.6,24.0,0.7,-99.9,93,63,64,30.07,29.93,10,-176,0,0.12
2013-12-19,44.2,31.8,28.3,31.0,11.6,-99.9,84,61,56,30.05,29.91,15,-115,0,0.14
2013-12-20,45.3,35.2,34.6,43.0,17.4,-99.9,92,74,72,30.01,29.77,11,-144,0,0.05
2013-12-21,51.5,32.5,32.0,49.0,11.2,-99.9,95,74,90,29.88,29.73,13,-196,0,0.47
2013-12-22,44.2,29.2,31.5,43.0,7.3,-99.9,96,74,86,29.97,29.58,14,-206,0,0.33
2013-12-23,42.1,27.2,29.0,39.0,0.3,-99.9,90,65,67,30.25,29.95,13,-236,0,0.01
2013-12-24,28.6,17.0,13.0,26.0,-2.2,-99.9,91,73,78,30.49,30.21,20,-163,0,0.00
2013-12-25,25.0,15.0,6.7,15.0,-0.9,-99.9,88,69,63,30.56,30.26,14,-100,0,0.00
2013-12-26,33.6,24.7,24.6,28.0,4.5,-99.9,89,63,65,30.27,30.06,14,-129,0,0.00
2013-12-27,33.2,25.2,23.2,28.0,7.4,-99.9,88,68,66,30.29,30.11,13,-122,0,0.00
2013-12-28,44.9,31.5,30.1,35.0,12.6,-99.9,91,68,67,30.10,29.95,12,-132,0,0.02
2013-12-29,44.7,33.1,30.1,38.0,15.4,-99.9,95,73,62,29.94,29.63,13,-135,0,0.17
2013-12-30,32.6,15.8,13.5,29.0,-6.5,-99.9,88,66,72,30.23,29.73,20,-178,0,0.00
2013-12-31,25.5,16.9,15.8,19.0,-2.2,-99.9,83,62,56,30.24,29.97,19,-108,0,0.00